RYR79RN LZIB-EGPH
Flight info
| Callsign | RYR79RN |
|---|---|
| Flight time | N/A |
| Altitude | 38000 |
| Route | TOVKA DCT DITIS DCT VEXIL DCT KUMER DCT LONAM DCT AGPED |
| Aircraft | B738/M-SDE2E3FGHIRWXY/LB1 |
Departure
| Time | 2026-05-06 12:37 |
|---|---|
| Airport | M. R. Štefánik Airport (LZIB) |
Arrival
| Time | N/A |
|---|---|
| Airport | Edinburgh Airport (EGPH) |
| Time | Latitude | Longitude | Altitude | Speed | Heading |
|---|---|---|---|---|---|
| 2026-05-06 12:11 | 48.16944 | 17.20133 | 431 ft | 0 kts | 314° |
| 2026-05-06 12:30 | 48.16938 | 17.20142 | 423 ft | 4 kts | 319° |
| 2026-05-06 12:30 | 48.16916 | 17.20162 | 428 ft | 4 kts | 349° |
| 2026-05-06 12:30 | 48.16891 | 17.20162 | 431 ft | 4 kts | 20° |
| 2026-05-06 12:30 | 48.16871 | 17.20145 | 421 ft | 1 kts | 44° |
| 2026-05-06 12:33 | 48.16900 | 17.20187 | 425 ft | 11 kts | 44° |
| 2026-05-06 12:33 | 48.16975 | 17.20296 | 425 ft | 19 kts | 44° |
| 2026-05-06 12:34 | 48.17075 | 17.20443 | 421 ft | 20 kts | 44° |
| 2026-05-06 12:34 | 48.17159 | 17.20561 | 430 ft | 15 kts | 32° |
| 2026-05-06 12:34 | 48.17248 | 17.20526 | 425 ft | 14 kts | 317° |
| 2026-05-06 12:34 | 48.17310 | 17.20424 | 420 ft | 10 kts | 314° |
| 2026-05-06 12:35 | 48.17361 | 17.20350 | 424 ft | 10 kts | 317° |
| 2026-05-06 12:35 | 48.17420 | 17.20300 | 420 ft | 10 kts | 347° |
| 2026-05-06 12:35 | 48.17459 | 17.20300 | 419 ft | 0 kts | 9° |
| 2026-05-06 12:36 | 48.17461 | 17.20300 | 419 ft | 1 kts | 9° |
| 2026-05-06 12:36 | 48.17497 | 17.20327 | 426 ft | 9 kts | 36° |
| 2026-05-06 12:36 | 48.17544 | 17.20404 | 421 ft | 10 kts | 68° |
| 2026-05-06 12:36 | 48.17511 | 17.20492 | 429 ft | 11 kts | 134° |
| 2026-05-06 12:37 | 48.17307 | 17.20805 | 426 ft | 78 kts | 134° |
| 2026-05-06 12:37 | 48.16774 | 17.21633 | 426 ft | 140 kts | 134° |
| 2026-05-06 12:37 | 48.16003 | 17.22862 | 684 ft | 170 kts | 133° |
| 2026-05-06 12:37 | 48.15212 | 17.24119 | 1635 ft | 163 kts | 135° |
| 2026-05-06 12:38 | 48.14386 | 17.25353 | 2248 ft | 180 kts | 135° |
| 2026-05-06 12:38 | 48.13464 | 17.26796 | 2568 ft | 204 kts | 135° |
| 2026-05-06 12:38 | 48.12444 | 17.28407 | 3083 ft | 215 kts | 136° |
| 2026-05-06 12:38 | 48.11613 | 17.30332 | 3649 ft | 229 kts | 112° |
| 2026-05-06 12:39 | 48.11401 | 17.32707 | 4497 ft | 233 kts | 92° |
| 2026-05-06 12:39 | 48.11649 | 17.35130 | 5208 ft | 244 kts | 66° |
| 2026-05-06 12:39 | 48.12730 | 17.37118 | 5940 ft | 250 kts | 41° |
| 2026-05-06 12:39 | 48.14263 | 17.38243 | 6621 ft | 253 kts | 6° |
| 2026-05-06 12:40 | 48.16019 | 17.38013 | 7083 ft | 263 kts | 336° |
| 2026-05-06 12:40 | 48.17698 | 17.36710 | 7324 ft | 283 kts | 325° |
| 2026-05-06 12:40 | 48.19406 | 17.35127 | 7896 ft | 293 kts | 324° |
| 2026-05-06 12:40 | 48.21145 | 17.33494 | 8642 ft | 296 kts | 324° |
| 2026-05-06 12:41 | 48.22908 | 17.31868 | 9415 ft | 298 kts | 324° |
| 2026-05-06 12:41 | 48.24428 | 17.29824 | 10082 ft | 294 kts | 299° |
| 2026-05-06 12:41 | 48.25218 | 17.26992 | 10490 ft | 302 kts | 276° |
| 2026-05-06 12:41 | 48.25281 | 17.23759 | 10699 ft | 319 kts | 264° |
| 2026-05-06 12:42 | 48.25168 | 17.20366 | 11131 ft | 331 kts | 264° |
| 2026-05-06 12:42 | 48.25036 | 17.16892 | 11806 ft | 335 kts | 264° |
| 2026-05-06 12:42 | 48.24915 | 17.13405 | 12627 ft | 335 kts | 264° |
| 2026-05-06 12:42 | 48.24803 | 17.09901 | 13383 ft | 339 kts | 264° |
| 2026-05-06 12:43 | 48.24693 | 17.06340 | 14049 ft | 343 kts | 264° |
| 2026-05-06 12:43 | 48.24610 | 17.02739 | 14721 ft | 350 kts | 269° |
| 2026-05-06 12:43 | 48.25109 | 16.99123 | 15416 ft | 360 kts | 287° |
| 2026-05-06 12:43 | 48.26087 | 16.95638 | 16146 ft | 364 kts | 290° |
| 2026-05-06 12:44 | 48.27108 | 16.92132 | 16804 ft | 369 kts | 291° |
| 2026-05-06 12:44 | 48.28263 | 16.88657 | 17449 ft | 375 kts | 294° |
| 2026-05-06 12:44 | 48.29510 | 16.85200 | 18095 ft | 379 kts | 295° |
| 2026-05-06 12:44 | 48.30794 | 16.81717 | 18731 ft | 382 kts | 296° |
| 2026-05-06 12:45 | 48.32085 | 16.78213 | 19374 ft | 385 kts | 295° |
| 2026-05-06 12:45 | 48.33376 | 16.74676 | 20005 ft | 387 kts | 295° |
| 2026-05-06 12:45 | 48.35939 | 16.67571 | 21223 ft | 391 kts | 295° |
| 2026-05-06 12:46 | 48.37228 | 16.63963 | 21780 ft | 394 kts | 295° |
| 2026-05-06 12:46 | 48.38524 | 16.60321 | 22316 ft | 396 kts | 294° |
| 2026-05-06 12:46 | 48.39825 | 16.56653 | 22866 ft | 398 kts | 294° |
| 2026-05-06 12:46 | 48.41126 | 16.52974 | 23408 ft | 400 kts | 294° |
| 2026-05-06 12:47 | 48.42439 | 16.49257 | 23903 ft | 403 kts | 294° |
| 2026-05-06 12:47 | 48.43758 | 16.45522 | 24414 ft | 405 kts | 294° |
| 2026-05-06 12:47 | 48.45080 | 16.41774 | 24911 ft | 406 kts | 294° |
| 2026-05-06 12:47 | 48.46409 | 16.37998 | 25342 ft | 410 kts | 294° |
| 2026-05-06 12:48 | 48.47749 | 16.34187 | 25747 ft | 413 kts | 294° |
| 2026-05-06 12:48 | 48.49097 | 16.30342 | 26160 ft | 416 kts | 294° |
| 2026-05-06 12:48 | 48.50452 | 16.26477 | 26584 ft | 418 kts | 294° |
| 2026-05-06 12:48 | 48.51811 | 16.22594 | 26976 ft | 420 kts | 294° |
| 2026-05-06 12:49 | 48.53177 | 16.18680 | 27341 ft | 423 kts | 294° |
| 2026-05-06 12:49 | 48.54554 | 16.14734 | 27699 ft | 426 kts | 294° |
| 2026-05-06 12:49 | 48.55933 | 16.10775 | 28074 ft | 428 kts | 294° |
| 2026-05-06 12:49 | 48.57321 | 16.06787 | 28418 ft | 430 kts | 294° |
| 2026-05-06 12:50 | 48.58716 | 16.02771 | 28758 ft | 432 kts | 293° |
| 2026-05-06 12:50 | 48.60116 | 15.98738 | 29090 ft | 434 kts | 293° |
| 2026-05-06 12:50 | 48.61519 | 15.94685 | 29426 ft | 436 kts | 293° |
| 2026-05-06 12:50 | 48.62927 | 15.90611 | 29747 ft | 438 kts | 293° |
| 2026-05-06 12:51 | 48.64338 | 15.86521 | 30025 ft | 440 kts | 293° |
| 2026-05-06 12:51 | 48.65755 | 15.82408 | 30324 ft | 441 kts | 293° |
| 2026-05-06 12:51 | 48.67169 | 15.78303 | 30812 ft | 438 kts | 292° |
| 2026-05-06 12:51 | 48.68567 | 15.74241 | 31390 ft | 432 kts | 292° |
| 2026-05-06 12:52 | 48.69944 | 15.70232 | 31958 ft | 426 kts | 292° |
| 2026-05-06 12:52 | 48.71302 | 15.66270 | 32445 ft | 422 kts | 292° |
| 2026-05-06 12:52 | 48.72648 | 15.62333 | 32862 ft | 419 kts | 292° |